createdAt,value
2022-10-13T00:00:08.229Z,5.40
2022-10-13T00:02:34.833Z,4.90
2022-10-13T00:05:01.521Z,4.63
2022-10-13T00:07:28.211Z,4.50
2022-10-13T00:09:54.833Z,4.95
2022-10-13T00:12:21.576Z,3.95
2022-10-13T00:14:48.322Z,4.75
2022-10-13T00:17:15.026Z,4.30
2022-10-13T00:19:41.619Z,4.15
2022-10-13T00:22:09.236Z,4.95
2022-10-13T00:24:35.987Z,4.20
2022-10-13T00:27:02.653Z,3.72
2022-10-13T00:29:29.306Z,4.95
2022-10-13T00:31:55.903Z,4.07
2022-10-13T00:34:22.495Z,4.50
2022-10-13T00:36:49.294Z,5.00
2022-10-13T00:39:16.024Z,4.07
2022-10-13T00:41:42.634Z,4.03
2022-10-13T00:44:47.043Z,3.92
2022-10-13T00:47:13.734Z,4.68
2022-10-13T00:49:40.414Z,3.67
2022-10-13T00:52:07.183Z,3.97
2022-10-13T00:54:34.185Z,4.22
2022-10-13T00:57:06.272Z,3.80
2022-10-13T00:59:34.486Z,3.95
2022-10-13T01:02:02.335Z,4.00
2022-10-13T01:04:34.735Z,4.82
2022-10-13T01:07:02.735Z,3.92
2022-10-13T01:09:36.084Z,3.42
2022-10-13T01:12:26.651Z,3.65
2022-10-13T01:15:08.898Z,3.78
2022-10-13T01:18:02.614Z,3.17
2022-10-13T01:21:00.115Z,3.75
2022-10-13T01:23:52.359Z,3.55
2022-10-13T01:26:49.799Z,3.60
2022-10-13T01:29:34.692Z,3.40
2022-10-13T01:32:46.179Z,3.80
2022-10-13T01:35:15.731Z,3.47
2022-10-13T01:37:49.090Z,3.83
2022-10-13T01:40:24.981Z,3.67
2022-10-13T01:43:07.029Z,3.97
2022-10-13T01:45:50.252Z,3.42
2022-10-13T01:48:19.822Z,3.50
2022-10-13T01:50:47.904Z,3.30
2022-10-13T01:53:18.036Z,3.10
2022-10-13T01:55:53.444Z,3.08
2022-10-13T01:58:21.023Z,2.70
2022-10-13T02:01:04.380Z,3.67
2022-10-13T02:03:46.393Z,3.38
2022-10-13T02:06:30.783Z,3.45
2022-10-13T02:09:10.673Z,3.05
2022-10-13T02:11:44.212Z,2.97
2022-10-13T02:14:20.902Z,2.53
2022-10-13T02:16:49.666Z,2.90
2022-10-13T02:19:18.898Z,2.95
2022-10-13T02:21:47.055Z,2.55
2022-10-13T02:24:14.457Z,2.95
2022-10-13T02:26:42.055Z,2.95
2022-10-13T02:29:10.604Z,2.80
2022-10-13T02:31:37.501Z,2.13
2022-10-13T02:34:04.817Z,3.72
2022-10-13T02:36:31.786Z,3.03
2022-10-13T02:38:59.022Z,2.30
2022-10-13T02:41:25.735Z,3.17
2022-10-13T02:43:52.470Z,2.42
2022-10-13T02:46:20.208Z,2.92
2022-10-13T02:48:46.838Z,2.42
2022-10-13T02:51:14.019Z,2.67
2022-10-13T02:53:40.687Z,2.50
2022-10-13T02:56:08.175Z,2.30
2022-10-13T02:58:35.285Z,2.85
2022-10-13T03:01:10.597Z,3.40
2022-10-13T03:03:37.816Z,2.00
2022-10-13T03:06:05.291Z,2.65
2022-10-13T03:08:33.779Z,2.90
2022-10-13T03:11:00.678Z,2.42
2022-10-13T03:13:27.558Z,2.15
2022-10-13T03:15:54.170Z,2.33
2022-10-13T03:18:20.851Z,2.70
2022-10-13T03:20:57.060Z,2.00
2022-10-13T03:23:24.442Z,2.58
2022-10-13T03:25:51.136Z,2.63
2022-10-13T03:28:17.820Z,2.78
2022-10-13T03:30:44.548Z,1.98
2022-10-13T03:33:11.157Z,2.28
2022-10-13T03:35:38.040Z,2.50
2022-10-13T03:38:04.806Z,2.38
2022-10-13T03:40:31.440Z,2.17
2022-10-13T03:42:58.165Z,1.70
2022-10-13T03:45:24.932Z,2.85
2022-10-13T03:47:51.557Z,2.10
2022-10-13T03:50:18.260Z,2.63
2022-10-13T03:52:45.646Z,2.38
2022-10-13T03:55:12.390Z,1.80
2022-10-13T03:57:39.012Z,2.00
2022-10-13T04:00:10.665Z,2.47
2022-10-13T04:02:37.260Z,2.20
2022-10-13T04:05:04.091Z,2.45
2022-10-13T04:07:31.070Z,2.60
2022-10-13T04:09:57.675Z,2.00
2022-10-13T04:12:24.523Z,2.78
2022-10-13T04:14:51.223Z,2.13
2022-10-13T04:17:17.853Z,1.55
2022-10-13T04:19:45.067Z,2.47
2022-10-13T04:22:12.119Z,2.35
2022-10-13T04:24:38.809Z,1.80
2022-10-13T04:27:05.503Z,2.40
2022-10-13T04:29:32.196Z,2.20
2022-10-13T04:32:01.663Z,2.08
2022-10-13T04:34:28.339Z,2.03
2022-10-13T04:36:54.935Z,2.72
2022-10-13T04:39:21.691Z,2.17
2022-10-13T04:41:48.535Z,2.22
2022-10-13T04:44:15.158Z,2.00
2022-10-13T04:46:41.902Z,2.10
2022-10-13T04:49:10.786Z,2.30
2022-10-13T04:51:38.483Z,2.00
2022-10-13T04:54:05.675Z,2.05
2022-10-13T04:56:32.556Z,2.28
2022-10-13T04:59:00.086Z,2.30
2022-10-13T05:01:27.232Z,2.22
2022-10-13T05:03:59.006Z,2.15
2022-10-13T05:06:28.151Z,2.63
2022-10-13T05:08:55.961Z,2.55
2022-10-13T05:11:25.495Z,2.38
2022-10-13T05:13:52.450Z,2.55
2022-10-13T05:16:21.191Z,1.92
2022-10-13T05:18:49.920Z,2.92
2022-10-13T05:21:19.023Z,2.65
2022-10-13T05:23:46.211Z,3.38
2022-10-13T05:26:17.831Z,2.28
2022-10-13T05:28:44.772Z,2.95
2022-10-13T05:31:19.386Z,2.42
2022-10-13T05:33:46.744Z,2.50
2022-10-13T05:36:19.328Z,2.80
2022-10-13T05:38:51.857Z,2.60
2022-10-13T05:41:18.804Z,3.30
2022-10-13T05:43:45.499Z,3.50
2022-10-13T05:46:12.275Z,3.25
2022-10-13T05:48:39.216Z,2.53
2022-10-13T05:51:16.191Z,3.35
2022-10-13T05:53:51.084Z,3.25
2022-10-13T05:58:53.862Z,3.22
2022-10-13T06:01:24.645Z,2.88
2022-10-13T06:03:53.547Z,3.80
2022-10-13T06:06:20.399Z,3.38
2022-10-13T06:08:46.995Z,3.78
2022-10-13T06:11:13.660Z,3.05
2022-10-13T06:13:41.852Z,3.35
2022-10-13T06:16:08.968Z,3.63
2022-10-13T06:18:35.639Z,3.40
2022-10-13T06:21:02.383Z,3.97
2022-10-13T06:23:29.042Z,3.78
2022-10-13T06:25:55.764Z,4.68
2022-10-13T06:28:22.629Z,4.15
2022-10-13T06:30:59.086Z,4.18
2022-10-13T06:33:26.228Z,4.13
2022-10-13T06:35:54.296Z,4.28
2022-10-13T06:38:20.933Z,4.05
2022-10-13T06:40:47.582Z,3.45
2022-10-13T06:43:14.975Z,3.83
2022-10-13T06:45:42.055Z,3.97
2022-10-13T06:48:08.833Z,4.60
2022-10-13T06:50:39.427Z,4.65
2022-10-13T06:53:08.696Z,4.03
2022-10-13T06:55:35.459Z,3.88
2022-10-13T06:58:02.068Z,4.68
2022-10-13T07:00:28.899Z,5.13
2022-10-13T07:02:55.594Z,3.88
2022-10-13T07:05:22.266Z,3.67
2022-10-13T07:07:52.235Z,5.18
2022-10-13T07:10:18.865Z,4.82
2022-10-13T07:12:45.539Z,4.10
2022-10-13T07:15:12.478Z,4.32
2022-10-13T07:17:39.302Z,4.60
2022-10-13T07:20:07.495Z,4.43
2022-10-13T07:22:34.292Z,4.90
2022-10-13T07:25:01.052Z,5.05
2022-10-13T07:27:28.458Z,5.10
2022-10-13T07:29:55.114Z,4.70
2022-10-13T07:32:21.764Z,5.30
2022-10-13T07:34:51.470Z,5.80
2022-10-13T07:37:18.656Z,4.60
2022-10-13T07:39:45.462Z,5.53
2022-10-13T07:42:12.270Z,5.13
2022-10-13T07:44:38.914Z,4.85
2022-10-13T07:47:05.779Z,5.65
2022-10-13T07:49:32.461Z,8.15
2022-10-13T07:51:59.098Z,5.32
2022-10-13T07:54:27.454Z,4.80
2022-10-13T07:56:56.092Z,5.18
2022-10-13T07:59:22.943Z,4.93
2022-10-13T08:01:50.522Z,5.63
2022-10-13T08:04:17.319Z,4.70
2022-10-13T08:06:46.184Z,5.13
2022-10-13T08:09:13.047Z,5.30
2022-10-13T08:11:39.730Z,4.88
2022-10-13T08:14:06.434Z,4.90
2022-10-13T08:16:33.287Z,4.57
2022-10-13T08:19:00.479Z,4.88
2022-10-13T08:21:56.428Z,4.65
2022-10-13T08:24:17.287Z,4.53
2022-10-13T08:26:46.511Z,5.05
2022-10-13T08:29:21.921Z,3.65
2022-10-13T08:34:22.895Z,3.60
2022-10-13T08:36:53.458Z,4.40
2022-10-13T08:39:22.583Z,3.58
2022-10-13T08:41:49.867Z,3.63
2022-10-13T08:48:00.253Z,3.55
2022-10-13T08:50:33.960Z,3.17
2022-10-13T08:53:12.760Z,3.75
2022-10-13T08:55:48.696Z,4.38
2022-10-13T08:58:21.704Z,4.28
2022-10-13T09:00:48.558Z,4.47
2022-10-13T09:03:20.108Z,4.15
2022-10-13T09:06:17.316Z,4.15
2022-10-13T09:09:03.891Z,4.93
2022-10-13T09:11:34.183Z,4.28
2022-10-13T09:14:04.157Z,3.72
2022-10-13T09:16:40.446Z,3.47
2022-10-13T09:19:19.671Z,3.58
2022-10-13T09:21:46.980Z,3.47
2022-10-13T09:24:20.874Z,7.22
2022-10-13T09:26:50.276Z,3.83
2022-10-13T09:29:21.387Z,3.70
2022-10-13T09:31:48.099Z,3.22
2022-10-13T09:34:14.659Z,4.13
2022-10-13T09:36:56.447Z,3.38
2022-10-13T09:39:23.242Z,3.25
2022-10-13T09:41:50.191Z,3.40
2022-10-13T09:44:29.715Z,2.42
2022-10-13T09:47:20.796Z,2.03
2022-10-13T09:50:06.455Z,1.35
2022-10-13T09:52:35.411Z,2.08
2022-10-13T09:55:02.150Z,1.70
2022-10-13T09:57:47.307Z,1.98
2022-10-13T10:00:21.884Z,1.90
2022-10-13T10:03:21.411Z,1.73
2022-10-13T10:05:59.560Z,2.00
2022-10-13T10:08:33.847Z,1.52
2022-10-13T10:11:14.073Z,2.20
2022-10-13T10:13:41.298Z,2.10
2022-10-13T10:16:19.735Z,1.83
2022-10-13T10:18:58.887Z,1.75
2022-10-13T10:21:43.996Z,1.40
2022-10-13T10:24:24.885Z,1.73
2022-10-13T10:27:06.611Z,1.70
2022-10-13T10:29:55.077Z,2.20
2022-10-13T10:32:24.729Z,1.83
2022-10-13T10:34:53.927Z,2.13
2022-10-13T10:37:43.989Z,1.88
2022-10-13T10:40:37.131Z,2.15
2022-10-13T10:43:17.045Z,1.75
2022-10-13T10:45:47.588Z,1.65
2022-10-13T10:48:23.060Z,1.80
2022-10-13T10:50:53.477Z,1.73
2022-10-13T10:53:31.994Z,2.88
2022-10-13T10:56:15.734Z,1.67
2022-10-13T10:59:21.386Z,2.10
2022-10-13T11:02:07.616Z,2.10
2022-10-13T11:04:40.426Z,2.58
2022-10-13T11:07:24.551Z,2.28
2022-10-13T11:09:51.411Z,2.13
2022-10-13T11:12:21.188Z,1.80
2022-10-13T11:15:03.460Z,1.73
2022-10-13T11:17:38.011Z,2.60
2022-10-13T11:20:25.049Z,2.42
2022-10-13T11:23:00.668Z,1.75
2022-10-13T11:25:44.750Z,2.13
2022-10-13T11:28:23.355Z,2.08
2022-10-13T11:31:05.554Z,3.47
2022-10-13T11:33:38.284Z,2.17
2022-10-13T11:36:29.734Z,2.00
2022-10-13T11:39:27.929Z,1.88
2022-10-13T11:42:09.617Z,2.10
2022-10-13T11:45:21.304Z,1.50
2022-10-13T11:48:06.277Z,2.22
2022-10-13T11:50:48.525Z,1.88
2022-10-13T11:53:19.989Z,1.73
2022-10-13T11:55:58.579Z,2.72
2022-10-13T11:58:28.913Z,2.28
2022-10-13T12:01:00.254Z,1.60
2022-10-13T12:03:34.932Z,2.70
2022-10-13T12:06:06.500Z,2.13
2022-10-13T12:08:35.923Z,2.20
2022-10-13T12:11:07.751Z,2.42
2022-10-13T12:13:36.402Z,2.13
2022-10-13T12:16:08.324Z,2.15
2022-10-13T12:18:39.354Z,2.03
2022-10-13T12:21:10.823Z,2.38
2022-10-13T12:23:38.025Z,2.38
2022-10-13T12:26:05.814Z,2.45
2022-10-13T12:29:01.810Z,2.45
2022-10-13T12:31:38.168Z,2.33
2022-10-13T12:34:16.300Z,2.08
2022-10-13T12:36:45.584Z,2.63
2022-10-13T12:39:15.608Z,3.20
2022-10-13T12:41:45.680Z,2.50
2022-10-13T12:44:21.462Z,2.80
2022-10-13T12:46:53.767Z,1.83
2022-10-13T12:49:29.279Z,2.47
2022-10-13T12:52:20.462Z,2.10
2022-10-13T12:54:51.231Z,2.30
2022-10-13T12:57:35.297Z,3.13
2022-10-13T13:00:03.612Z,2.38
2022-10-13T13:02:32.999Z,2.42
2022-10-13T13:05:00.806Z,4.65
2022-10-13T13:07:29.766Z,2.65
2022-10-13T13:10:15.780Z,2.83
2022-10-13T13:12:43.018Z,2.63
2022-10-13T13:15:34.659Z,2.63
2022-10-13T13:18:37.205Z,2.83
2022-10-13T13:21:09.343Z,3.47
2022-10-13T13:23:36.549Z,2.03
2022-10-13T13:26:20.084Z,2.40
2022-10-13T13:28:52.293Z,2.42
2022-10-13T13:31:21.767Z,2.25
2022-10-13T13:33:48.818Z,2.50
2022-10-13T13:36:25.944Z,2.38
2022-10-13T13:38:54.232Z,2.85
2022-10-13T13:41:21.745Z,2.60
2022-10-13T13:43:48.611Z,2.33
2022-10-13T13:46:21.642Z,2.55
2022-10-13T13:48:48.364Z,2.78
2022-10-13T13:51:15.435Z,3.47
2022-10-13T13:53:42.179Z,2.50
2022-10-13T13:56:14.029Z,2.58
2022-10-13T13:58:40.766Z,2.40
2022-10-13T14:01:08.094Z,3.95
2022-10-13T14:03:34.883Z,3.20
2022-10-13T14:06:01.626Z,2.67
2022-10-13T14:08:32.297Z,3.20
2022-10-13T14:10:58.970Z,3.38
2022-10-13T14:13:25.671Z,3.58
2022-10-13T14:15:59.750Z,3.92
2022-10-13T14:18:26.615Z,3.50
2022-10-13T14:20:53.347Z,3.50
2022-10-13T14:23:20.897Z,2.78
2022-10-13T14:25:47.572Z,3.40
2022-10-13T14:28:18.044Z,2.88
2022-10-13T14:30:45.325Z,2.75
2022-10-13T14:33:11.948Z,3.92
2022-10-13T14:35:38.533Z,2.95
2022-10-13T14:38:05.164Z,2.67
2022-10-13T14:40:31.767Z,2.50
2022-10-13T14:42:58.368Z,2.63
2022-10-13T14:45:25.007Z,2.92
2022-10-13T14:47:53.681Z,3.03
2022-10-13T14:50:20.648Z,2.25
2022-10-13T14:52:47.303Z,2.78
2022-10-13T14:55:16.269Z,2.83
2022-10-13T14:57:42.860Z,2.90
2022-10-13T15:00:11.105Z,2.72
2022-10-13T15:02:37.705Z,2.05
2022-10-13T15:05:04.694Z,3.15
2022-10-13T15:07:31.296Z,2.75
2022-10-13T15:10:05.434Z,2.28
2022-10-13T15:12:32.838Z,2.45
2022-10-13T15:14:59.471Z,2.72
2022-10-13T15:17:26.170Z,2.72
2022-10-13T15:19:52.824Z,2.50
2022-10-13T15:22:20.488Z,3.00
2022-10-13T15:24:47.718Z,3.05
2022-10-13T15:27:14.450Z,2.10
2022-10-13T15:29:41.100Z,2.72
2022-10-13T15:32:13.611Z,2.28
2022-10-13T15:34:40.308Z,3.13
2022-10-13T15:37:07.539Z,2.47
2022-10-13T15:39:34.458Z,2.85
2022-10-13T15:42:01.155Z,2.88
2022-10-13T15:44:30.861Z,3.17
2022-10-13T15:47:07.810Z,4.35
2022-10-13T15:49:39.650Z,5.97
2022-10-13T15:52:06.393Z,4.88
2022-10-13T15:54:36.089Z,5.40
2022-10-13T15:57:03.123Z,4.60
2022-10-13T15:59:30.092Z,4.43
2022-10-13T16:01:56.979Z,4.10
2022-10-13T16:04:23.623Z,4.72
2022-10-13T16:06:50.250Z,5.05
2022-10-13T16:09:16.889Z,4.82
2022-10-13T16:11:43.973Z,4.47
2022-10-13T16:14:10.583Z,4.80
2022-10-13T16:16:37.518Z,3.85
2022-10-13T16:19:04.295Z,3.83
2022-10-13T16:22:23.559Z,3.63
2022-10-13T16:24:50.667Z,3.88
2022-10-13T16:27:20.407Z,3.08
2022-10-13T16:29:50.816Z,3.10
2022-10-13T16:32:44.568Z,3.40
2022-10-13T16:35:11.951Z,3.25
2022-10-13T16:37:46.350Z,2.70
2022-10-13T16:40:45.562Z,4.47
2022-10-13T16:43:37.409Z,4.05
2022-10-13T16:46:07.086Z,3.45
2022-10-13T16:48:34.232Z,3.95
2022-10-13T16:51:06.401Z,3.72
2022-10-13T16:53:34.541Z,3.60
2022-10-13T16:56:01.379Z,3.63
2022-10-13T16:58:28.233Z,3.58
2022-10-13T17:01:06.156Z,3.33
2022-10-13T17:03:32.851Z,2.55
2022-10-13T17:05:59.478Z,3.10
2022-10-13T17:08:26.542Z,3.00
2022-10-13T17:10:58.028Z,2.95
2022-10-13T17:13:25.339Z,2.80
2022-10-13T17:15:53.521Z,3.38
2022-10-13T17:18:20.762Z,3.10
2022-10-13T17:20:59.118Z,2.22
2022-10-13T17:23:26.840Z,2.88
2022-10-13T17:25:54.447Z,3.10
2022-10-13T17:28:22.392Z,2.40
2022-10-13T17:31:06.703Z,2.50
2022-10-13T17:33:35.176Z,2.80
2022-10-13T17:36:07.117Z,2.35
2022-10-13T17:38:35.041Z,3.67
2022-10-13T17:41:04.831Z,2.80
2022-10-13T17:43:36.188Z,3.30
2022-10-13T17:46:35.586Z,3.00
2022-10-13T17:48:58.629Z,3.10
2022-10-13T17:51:25.661Z,3.10
2022-10-13T17:53:52.860Z,3.60
2022-10-13T17:56:23.206Z,3.88
2022-10-13T17:58:51.394Z,3.95
2022-10-13T18:01:45.201Z,4.68
2022-10-13T18:04:16.844Z,3.63
2022-10-13T18:06:44.543Z,3.08
2022-10-13T18:09:17.057Z,3.30
2022-10-13T18:11:49.758Z,3.10
2022-10-13T18:14:18.601Z,3.78
2022-10-13T18:16:45.852Z,3.88
2022-10-13T18:19:13.308Z,3.83
2022-10-13T18:21:40.083Z,4.70
2022-10-13T18:24:07.974Z,4.40
2022-10-13T18:26:37.538Z,4.57
2022-10-13T18:29:06.314Z,5.10
2022-10-13T18:31:36.183Z,5.43
2022-10-13T18:34:10.339Z,4.57
2022-10-13T18:36:43.797Z,4.30
2022-10-13T18:39:16.369Z,4.93
2022-10-13T18:41:43.045Z,4.07
2022-10-13T18:44:10.545Z,4.32
2022-10-13T18:46:38.940Z,4.20
2022-10-13T18:49:06.842Z,4.60
2022-10-13T18:51:36.206Z,4.05
2022-10-13T18:54:04.272Z,3.88
2022-10-13T18:56:32.377Z,4.28
2022-10-13T18:59:01.776Z,5.43
2022-10-13T19:01:31.397Z,5.80
2022-10-13T19:03:58.603Z,6.03
2022-10-13T19:06:27.371Z,5.88
2022-10-13T19:09:02.087Z,5.30
2022-10-13T19:11:30.118Z,5.03
2022-10-13T19:13:58.622Z,4.50
2022-10-13T19:16:26.772Z,3.95
2022-10-13T19:18:53.853Z,4.75
2022-10-13T19:21:22.231Z,5.07
2022-10-13T19:23:50.993Z,5.60
2022-10-13T19:26:24.042Z,4.65
2022-10-13T19:28:59.921Z,4.28
2022-10-13T19:31:28.984Z,3.63
2022-10-13T19:33:57.525Z,4.63
2022-10-13T19:36:30.896Z,3.85
2022-10-13T19:38:58.245Z,4.10
2022-10-13T19:41:28.107Z,4.45
2022-10-13T19:43:54.822Z,3.65
2022-10-13T19:46:22.397Z,3.30
2022-10-13T19:48:49.087Z,3.50
2022-10-13T19:51:16.314Z,3.67
2022-10-13T19:53:43.088Z,3.75
2022-10-13T19:56:30.263Z,3.25
2022-10-13T19:58:57.502Z,4.13
2022-10-13T20:01:24.429Z,3.17
2022-10-13T20:03:51.574Z,3.95
2022-10-13T20:06:19.481Z,4.45
2022-10-13T20:08:47.130Z,4.05
2022-10-13T20:11:23.386Z,4.03
2022-10-13T20:16:22.403Z,4.13
2022-10-13T20:18:57.668Z,3.58
2022-10-13T20:21:25.760Z,2.88
2022-10-13T20:23:53.074Z,3.70
2022-10-13T20:26:20.842Z,3.67
2022-10-13T20:28:49.084Z,3.80
2022-10-13T20:31:18.388Z,3.47
2022-10-13T20:33:45.610Z,3.30
2022-10-13T20:36:14.896Z,3.35
2022-10-13T20:38:42.214Z,3.90
2022-10-13T20:41:14.916Z,3.15
2022-10-13T20:43:41.537Z,4.15
2022-10-13T20:46:08.772Z,3.95
2022-10-13T20:49:05.129Z,4.45
2022-10-13T20:51:27.601Z,4.00
2022-10-13T20:53:54.616Z,4.55
2022-10-13T20:56:24.085Z,4.00
2022-10-13T20:58:51.692Z,4.32
2022-10-13T21:01:20.946Z,4.28
2022-10-13T21:03:52.970Z,4.53
2022-10-13T21:06:20.714Z,3.97
2022-10-13T21:08:47.727Z,4.03
2022-10-13T21:11:16.469Z,4.03
2022-10-13T21:13:44.089Z,3.92
2022-10-13T21:16:19.432Z,3.90
2022-10-13T21:18:48.148Z,3.63
2022-10-13T21:21:17.381Z,3.95
2022-10-13T21:23:44.252Z,5.18
2022-10-13T21:26:11.268Z,3.95
2022-10-13T21:28:39.287Z,3.85
2022-10-13T21:31:10.996Z,4.30
2022-10-13T21:33:39.217Z,4.57
2022-10-13T21:36:07.918Z,4.43
2022-10-13T21:38:35.696Z,4.90
2022-10-13T21:41:07.387Z,5.15
2022-10-13T21:43:34.614Z,6.32
2022-10-13T21:46:11.578Z,5.82
2022-10-13T21:48:38.921Z,6.97
2022-10-13T21:51:26.744Z,7.22
2022-10-13T21:53:56.466Z,7.47
2022-10-13T21:56:25.050Z,8.48
2022-10-13T21:58:52.113Z,8.48
2022-10-13T22:01:19.856Z,8.57
2022-10-13T22:03:47.699Z,7.50
2022-10-13T22:06:19.152Z,8.10
2022-10-13T22:08:49.044Z,7.72
2022-10-13T22:11:16.670Z,10.32
2022-10-13T22:13:43.518Z,7.85
2022-10-13T22:16:35.035Z,8.48
2022-10-13T22:19:02.252Z,7.50
2022-10-13T22:21:32.150Z,8.55
2022-10-13T22:24:04.972Z,7.30
2022-10-13T22:26:34.799Z,9.38
2022-10-13T22:29:03.344Z,8.00
2022-10-13T22:31:30.703Z,7.65
2022-10-13T22:33:57.282Z,7.68
2022-10-13T22:36:25.948Z,7.38
2022-10-13T22:38:55.195Z,7.30
2022-10-13T22:41:23.031Z,6.47
2022-10-13T22:43:54.727Z,7.35
2022-10-13T22:46:24.058Z,7.28
2022-10-13T22:48:50.909Z,7.88
2022-10-13T22:51:20.999Z,7.78
2022-10-13T22:53:48.916Z,8.00
2022-10-13T22:56:18.890Z,7.38
2022-10-13T22:58:52.786Z,8.07
2022-10-13T23:01:20.316Z,8.38
2022-10-13T23:03:58.066Z,8.80
2022-10-13T23:06:30.473Z,8.50
2022-10-13T23:09:00.365Z,9.10
2022-10-13T23:11:28.104Z,8.68
2022-10-13T23:13:54.772Z,7.68
2022-10-13T23:16:23.861Z,8.77
2022-10-13T23:18:51.550Z,7.90
2022-10-13T23:21:19.708Z,8.75
2022-10-13T23:23:47.265Z,9.13
2022-10-13T23:26:16.940Z,8.05
2022-10-13T23:28:44.788Z,8.15
2022-10-13T23:31:14.407Z,9.57
2022-10-13T23:33:41.571Z,8.07
2022-10-13T23:36:10.960Z,8.38
2022-10-13T23:38:37.538Z,8.15
2022-10-13T23:41:10.357Z,8.43
2022-10-13T23:43:37.098Z,7.53
2022-10-13T23:46:04.577Z,7.93
2022-10-13T23:48:31.267Z,7.03
2022-10-13T23:50:57.979Z,7.53
2022-10-13T23:53:24.953Z,9.50
2022-10-13T23:55:51.569Z,7.32
2022-10-13T23:58:18.193Z,7.53
